Troy, Ohio
Current Conditions -  °F | °C
As of 3:56 AM on Tuesday 21 Oct 2014 (Local Time) from KDAY Reporting Station
Broken Clouds Broken Clouds  
Wind Chill: 10°   Ceiling: 6500
Heat Index: 10°   Visibility: 9mi
Dew Point:   Wind: 7mph
Humidity: 89%   Direction: 290°WNW
Pressure: 29.92"   Gusts: NA
Location:  40.04°N, 84.2°W
Report Text: KDAY 210756Z 29006KT 9SM BKN065 10/08 A2992 RMK AO2 CIG 030 RWY 6L SLP132 T01000083
Loading
Personal Weather Stations






























Interactive Weather Map
Tropical Storm Tracking
New forecast layout! Learn more

10-Day Weather Forecast

Advertisements
Track Severe Weather on mobile